PKWA TAF

85.3 °F / 29.6 °C
NE at 6 MPH
75%
76.6°F / 24.8 °C
29.87" (1011 mb)
10 mile(s)
clear
2017.07.22 2220 UTC

PKWA TAF

2017/07/22 18:25
TAF PKWA 221720Z 2218/2318 07008KT P6SM VCSH FEW020 SCT035
FM230200 05011KT P6SM VCSH SCT020 SCT040